createdAt,value
2022-12-26T00:00:21.935Z,6.03
2022-12-26T00:00:51.924Z,6.03
2022-12-26T00:01:24.444Z,6.03
2022-12-26T00:01:55.615Z,6.03
2022-12-26T00:02:29.025Z,6.03
2022-12-26T00:02:59.776Z,6.03
2022-12-26T00:03:32.531Z,6.03
2022-12-26T00:04:03.846Z,6.03
2022-12-26T00:04:52.182Z,6.03
2022-12-26T00:05:07.779Z,6.03
2022-12-26T00:05:40.488Z,6.03
2022-12-26T00:06:11.784Z,6.03
2022-12-26T00:06:44.361Z,6.03
2022-12-26T00:07:15.797Z,6.03
2022-12-26T00:07:48.580Z,6.03
2022-12-26T00:08:19.673Z,6.03
2022-12-26T00:08:52.568Z,6.03
2022-12-26T00:09:23.650Z,6.03
2022-12-26T00:09:56.451Z,6.03
2022-12-26T00:10:27.847Z,6.03
2022-12-26T00:11:00.232Z,6.14
2022-12-26T00:11:31.429Z,6.14
2022-12-26T00:12:04.708Z,6.14
2022-12-26T00:12:35.567Z,6.14
2022-12-26T00:13:37.295Z,6.14
2022-12-26T00:13:41.397Z,6.14
2022-12-26T00:14:12.336Z,6.14
2022-12-26T00:14:43.571Z,6.14
2022-12-26T00:15:17.645Z,6.14
2022-12-26T00:15:47.857Z,6.14
2022-12-26T00:16:20.475Z,6.19
2022-12-26T00:16:51.716Z,6.19
2022-12-26T00:17:24.381Z,6.19
2022-12-26T00:17:55.619Z,6.19
2022-12-26T00:18:28.676Z,6.19
2022-12-26T00:18:59.673Z,6.19
2022-12-26T00:19:32.407Z,6.19
2022-12-26T00:20:03.968Z,6.19
2022-12-26T00:20:36.449Z,6.19
2022-12-26T00:21:07.478Z,6.19
2022-12-26T00:21:40.472Z,6.30
2022-12-26T00:22:11.690Z,6.30
2022-12-26T00:22:44.642Z,6.45
2022-12-26T00:23:15.607Z,6.45
2022-12-26T00:23:48.409Z,6.57
2022-12-26T00:24:19.649Z,6.57
2022-12-26T00:24:52.324Z,6.57
2022-12-26T00:25:23.851Z,6.57
2022-12-26T00:25:56.353Z,6.68
2022-12-26T00:26:27.632Z,6.68
2022-12-26T00:27:00.426Z,6.63
2022-12-26T00:27:31.736Z,6.63
2022-12-26T00:28:05.425Z,6.63
2022-12-26T00:28:35.539Z,6.63
2022-12-26T00:29:08.648Z,6.63
2022-12-26T00:29:39.677Z,6.63
2022-12-26T00:30:13.479Z,6.68
2022-12-26T00:30:43.777Z,6.68
2022-12-26T00:31:16.557Z,6.68
2022-12-26T00:31:47.732Z,6.68
2022-12-26T00:32:20.548Z,6.79
2022-12-26T00:32:51.568Z,6.79
2022-12-26T00:33:24.586Z,6.79
2022-12-26T00:33:55.605Z,6.79
2022-12-26T00:34:28.632Z,6.91
2022-12-26T00:34:59.713Z,6.91
2022-12-26T00:35:32.790Z,6.91
2022-12-26T00:36:03.628Z,6.91
2022-12-26T00:36:36.608Z,6.91
2022-12-26T00:37:07.422Z,6.91
2022-12-26T00:37:40.594Z,6.91
2022-12-26T00:38:11.650Z,6.91
2022-12-26T00:38:44.501Z,7.02
2022-12-26T00:39:15.600Z,7.02
2022-12-26T00:39:48.405Z,7.02
2022-12-26T00:40:20.144Z,7.02
2022-12-26T00:40:52.252Z,6.87
2022-12-26T00:41:23.529Z,6.87
2022-12-26T00:41:56.444Z,6.87
2022-12-26T00:42:27.700Z,6.87
2022-12-26T00:43:00.443Z,6.87
2022-12-26T00:43:31.581Z,6.87
2022-12-26T00:44:04.466Z,6.87
2022-12-26T00:44:35.537Z,6.87
2022-12-26T00:45:09.643Z,6.87
2022-12-26T00:45:39.730Z,6.87
2022-12-26T00:46:12.590Z,6.87
2022-12-26T00:46:43.556Z,6.87
2022-12-26T00:47:16.625Z,6.87
2022-12-26T00:47:47.725Z,6.87
2022-12-26T00:48:20.348Z,6.98
2022-12-26T00:48:51.427Z,6.98
2022-12-26T00:49:24.460Z,6.98
2022-12-26T00:50:12.355Z,6.98
2022-12-26T00:50:34.452Z,6.98
2022-12-26T00:50:59.617Z,6.98
2022-12-26T00:51:32.535Z,6.98
2022-12-26T00:52:03.553Z,6.98
2022-12-26T00:52:36.935Z,6.98
2022-12-26T00:53:07.641Z,6.98
2022-12-26T00:53:40.599Z,6.98
2022-12-26T00:54:11.577Z,6.98
2022-12-26T00:54:44.681Z,6.71
2022-12-26T00:55:15.988Z,6.71
2022-12-26T00:55:48.611Z,6.71
2022-12-26T00:56:19.582Z,6.71
2022-12-26T00:56:52.481Z,6.71
2022-12-26T00:57:23.862Z,6.71
2022-12-26T00:57:56.283Z,6.71
2022-12-26T00:58:27.533Z,6.71
2022-12-26T00:59:00.645Z,6.71
2022-12-26T00:59:31.525Z,6.71
2022-12-26T01:00:05.908Z,6.60
2022-12-26T01:00:36.343Z,6.60
2022-12-26T01:01:08.845Z,6.60
2022-12-26T01:01:39.943Z,6.60
2022-12-26T01:02:12.484Z,6.44
2022-12-26T01:02:43.686Z,6.44
2022-12-26T01:03:17.624Z,6.33
2022-12-26T01:03:47.648Z,6.33
2022-12-26T01:04:20.428Z,6.33
2022-12-26T01:04:51.691Z,6.33
2022-12-26T01:05:24.594Z,6.33
2022-12-26T01:05:55.593Z,6.33
2022-12-26T01:06:28.450Z,6.33
2022-12-26T01:06:59.638Z,6.33
2022-12-26T01:07:32.431Z,6.22
2022-12-26T01:08:23.343Z,6.22
2022-12-26T01:08:36.812Z,6.22
2022-12-26T01:09:07.512Z,6.22
2022-12-26T01:09:40.365Z,6.22
2022-12-26T01:10:12.078Z,6.22
2022-12-26T01:10:44.397Z,6.22
2022-12-26T01:11:15.616Z,6.22
2022-12-26T01:11:49.380Z,6.22
2022-12-26T01:12:19.526Z,6.22
2022-12-26T01:12:52.644Z,6.17
2022-12-26T01:13:23.655Z,6.17
2022-12-26T01:13:56.601Z,6.17
2022-12-26T01:14:27.439Z,6.17
2022-12-26T01:15:01.839Z,6.17
2022-12-26T01:15:31.791Z,6.17
2022-12-26T01:16:04.379Z,6.17
2022-12-26T01:16:35.619Z,6.17
2022-12-26T01:17:08.725Z,6.17
2022-12-26T01:17:39.731Z,6.17
2022-12-26T01:18:12.354Z,6.17
2022-12-26T01:18:43.647Z,6.17
2022-12-26T01:19:16.677Z,6.17
2022-12-26T01:19:47.701Z,6.17
2022-12-26T01:20:20.729Z,6.32
2022-12-26T01:20:51.666Z,6.32
2022-12-26T01:21:24.527Z,6.32
2022-12-26T01:21:55.602Z,6.32
2022-12-26T01:22:28.485Z,6.32
2022-12-26T01:22:59.727Z,6.32
2022-12-26T01:23:32.388Z,6.32
2022-12-26T01:24:03.593Z,6.32
2022-12-26T01:24:19.791Z,6.32
2022-12-26T01:24:51.463Z,6.32
2022-12-26T01:25:23.938Z,6.32
2022-12-26T01:26:17.876Z,6.32
2022-12-26T01:26:27.494Z,6.32
2022-12-26T01:27:01.383Z,6.32
2022-12-26T01:27:31.618Z,6.32
2022-12-26T01:28:04.673Z,6.32
2022-12-26T01:28:35.592Z,6.32
2022-12-26T01:29:08.434Z,6.32
2022-12-26T01:29:39.673Z,6.32
2022-12-26T01:30:13.658Z,6.37
2022-12-26T01:30:43.712Z,6.37
2022-12-26T01:31:16.493Z,6.37
2022-12-26T01:31:47.735Z,6.37
2022-12-26T01:32:20.473Z,6.37
2022-12-26T01:32:51.646Z,6.37
2022-12-26T01:33:25.298Z,6.37
2022-12-26T01:33:55.526Z,6.37
2022-12-26T01:34:28.498Z,6.37
2022-12-26T01:34:59.731Z,6.37
2022-12-26T01:35:32.604Z,6.37
2022-12-26T01:36:03.672Z,6.37
2022-12-26T01:36:19.847Z,6.32
2022-12-26T01:36:51.595Z,6.32
2022-12-26T01:37:23.773Z,6.37
2022-12-26T01:37:55.750Z,6.37
2022-12-26T01:38:27.558Z,6.32
2022-12-26T01:39:00.525Z,6.32
2022-12-26T01:39:31.733Z,6.32
2022-12-26T01:40:04.895Z,6.32
2022-12-26T01:40:35.652Z,6.32
2022-12-26T01:41:08.402Z,6.32
2022-12-26T01:41:39.828Z,6.32
2022-12-26T01:42:12.603Z,6.32
2022-12-26T01:42:43.644Z,6.32
2022-12-26T01:43:16.486Z,6.32
2022-12-26T01:43:47.823Z,6.32
2022-12-26T01:44:20.326Z,6.32
2022-12-26T01:44:51.662Z,6.32
2022-12-26T01:45:26.794Z,6.32
2022-12-26T01:45:55.829Z,6.32
2022-12-26T01:46:28.416Z,6.32
2022-12-26T01:46:59.745Z,6.37
2022-12-26T01:47:32.554Z,6.37
2022-12-26T01:48:03.596Z,6.37
2022-12-26T01:48:37.087Z,6.37
2022-12-26T01:49:07.855Z,6.37
2022-12-26T01:49:41.116Z,6.37
2022-12-26T01:50:11.927Z,6.48
2022-12-26T01:50:44.581Z,6.48
2022-12-26T01:51:15.572Z,6.60
2022-12-26T01:51:48.364Z,6.60
2022-12-26T01:52:19.691Z,6.60
2022-12-26T01:52:52.504Z,6.60
2022-12-26T01:53:23.567Z,6.44
2022-12-26T01:53:56.400Z,6.44
2022-12-26T01:54:41.335Z,6.55
2022-12-26T01:55:01.727Z,6.55
2022-12-26T01:55:31.613Z,6.55
2022-12-26T01:56:06.327Z,6.55
2022-12-26T01:56:35.743Z,6.66
2022-12-26T01:57:08.484Z,6.66
2022-12-26T01:57:39.704Z,6.51
2022-12-26T01:58:13.333Z,6.51
2022-12-26T01:58:43.546Z,6.56
2022-12-26T01:59:16.443Z,6.56
2022-12-26T01:59:47.622Z,6.56
2022-12-26T02:02:38.158Z,6.56
2022-12-26T02:02:50.502Z,6.67
2022-12-26T02:03:21.916Z,6.67
2022-12-26T02:03:49.343Z,6.67
2022-12-26T02:04:19.649Z,6.67
2022-12-26T02:04:52.237Z,6.67
2022-12-26T02:05:23.992Z,6.79
2022-12-26T02:06:02.211Z,6.79
2022-12-26T02:06:27.525Z,6.62
2022-12-26T02:06:59.702Z,6.62
2022-12-26T02:07:32.268Z,6.73
2022-12-26T02:08:03.674Z,6.73
2022-12-26T02:08:40.399Z,6.73
2022-12-26T02:09:07.525Z,6.73
2022-12-26T02:09:39.632Z,6.84
2022-12-26T02:10:12.549Z,6.84
2022-12-26T02:10:43.663Z,6.89
2022-12-26T02:11:16.436Z,6.89
2022-12-26T02:11:47.625Z,6.89
2022-12-26T02:12:34.040Z,6.89
2022-12-26T02:12:51.673Z,6.89
2022-12-26T02:13:24.372Z,6.89
2022-12-26T02:13:55.565Z,6.89
2022-12-26T02:14:28.330Z,6.89
2022-12-26T02:14:59.711Z,6.89
2022-12-26T02:15:33.757Z,6.89
2022-12-26T02:16:03.670Z,6.89
2022-12-26T02:16:36.559Z,6.89
2022-12-26T02:17:07.791Z,6.89
2022-12-26T02:17:40.366Z,6.89
2022-12-26T02:18:11.663Z,6.89
2022-12-26T02:18:44.563Z,6.89
2022-12-26T02:19:15.701Z,6.89
2022-12-26T02:19:48.379Z,6.89
2022-12-26T02:20:20.048Z,6.72
2022-12-26T02:20:52.582Z,6.72
2022-12-26T02:21:23.708Z,6.72
2022-12-26T02:21:56.462Z,6.72
2022-12-26T02:22:27.697Z,6.72
2022-12-26T02:23:00.380Z,6.72
2022-12-26T02:23:31.651Z,6.67
2022-12-26T02:24:04.323Z,6.67
2022-12-26T02:24:35.738Z,6.67
2022-12-26T02:25:08.733Z,6.67
2022-12-26T02:25:39.636Z,6.67
2022-12-26T02:26:12.598Z,6.67
2022-12-26T02:26:43.670Z,6.67
2022-12-26T02:27:16.440Z,6.67
2022-12-26T02:27:47.666Z,6.57
2022-12-26T02:28:20.449Z,6.57
2022-12-26T02:28:51.561Z,6.57
2022-12-26T02:29:24.460Z,6.57
2022-12-26T02:29:55.739Z,6.57
2022-12-26T02:30:29.604Z,6.57
2022-12-26T02:30:59.839Z,6.41
2022-12-26T02:31:32.625Z,6.41
2022-12-26T02:32:03.886Z,6.46
2022-12-26T02:32:36.528Z,6.46
2022-12-26T02:33:07.725Z,6.46
2022-12-26T02:33:40.637Z,6.46
2022-12-26T02:34:11.575Z,6.46
2022-12-26T02:34:44.420Z,6.46
2022-12-26T02:35:16.024Z,6.46
2022-12-26T02:35:48.273Z,6.46
2022-12-26T02:36:19.586Z,6.46
2022-12-26T02:36:52.399Z,6.46
2022-12-26T02:37:23.706Z,6.34
2022-12-26T02:37:56.475Z,6.34
2022-12-26T02:38:27.594Z,6.34
2022-12-26T02:39:00.555Z,6.34
2022-12-26T02:39:45.183Z,6.34
2022-12-26T02:40:04.795Z,6.34
2022-12-26T02:40:35.650Z,6.34
2022-12-26T02:41:08.643Z,6.34
2022-12-26T02:41:39.530Z,6.34
2022-12-26T02:42:12.560Z,6.34
2022-12-26T02:42:43.669Z,6.34
2022-12-26T02:43:16.707Z,6.34
2022-12-26T02:43:47.578Z,6.34
2022-12-26T02:44:20.391Z,6.34
2022-12-26T02:44:51.680Z,6.34
2022-12-26T02:45:25.767Z,6.34
2022-12-26T02:45:55.846Z,6.34
2022-12-26T02:46:28.620Z,6.34
2022-12-26T02:46:59.619Z,6.34
2022-12-26T02:47:32.387Z,6.34
2022-12-26T02:48:03.683Z,6.34
2022-12-26T02:48:36.598Z,6.34
2022-12-26T02:49:07.531Z,6.34
2022-12-26T02:49:40.570Z,6.34
2022-12-26T02:50:12.040Z,6.34
2022-12-26T02:50:44.595Z,6.34
2022-12-26T02:51:15.718Z,6.34
2022-12-26T02:51:48.652Z,6.34
2022-12-26T02:52:19.704Z,6.34
2022-12-26T02:52:52.547Z,6.34
2022-12-26T02:53:23.627Z,6.34
2022-12-26T02:53:56.589Z,6.34
2022-12-26T02:54:27.629Z,6.34
2022-12-26T02:55:00.866Z,6.34
2022-12-26T02:55:31.699Z,6.23
2022-12-26T02:56:04.375Z,6.23
2022-12-26T02:56:35.606Z,6.23
2022-12-26T02:57:08.663Z,6.23
2022-12-26T02:57:39.828Z,6.23
2022-12-26T02:58:12.469Z,6.23
2022-12-26T02:58:43.636Z,6.23
2022-12-26T02:59:16.592Z,6.23
2022-12-26T02:59:55.111Z,6.23
2022-12-26T03:00:21.696Z,6.23
2022-12-26T03:00:51.825Z,6.23
2022-12-26T03:01:24.684Z,6.23
2022-12-26T03:01:55.817Z,6.23
2022-12-26T03:02:28.772Z,6.23
2022-12-26T03:02:59.866Z,6.23
2022-12-26T03:03:32.773Z,6.23
2022-12-26T03:04:03.602Z,6.23
2022-12-26T03:04:36.680Z,6.23
2022-12-26T03:05:08.017Z,6.23
2022-12-26T03:05:40.567Z,6.23
2022-12-26T03:06:11.679Z,6.23
2022-12-26T03:06:44.615Z,6.23
2022-12-26T03:07:15.595Z,6.23
2022-12-26T03:07:48.788Z,6.23
2022-12-26T03:08:19.764Z,6.34
2022-12-26T03:08:52.565Z,6.34
2022-12-26T03:09:23.576Z,6.34
2022-12-26T03:09:56.659Z,6.34
2022-12-26T03:10:28.102Z,6.34
2022-12-26T03:11:00.409Z,6.34
2022-12-26T03:11:31.690Z,6.30
2022-12-26T03:12:04.625Z,6.30
2022-12-26T03:12:35.751Z,6.30
2022-12-26T03:13:08.467Z,6.30
2022-12-26T03:13:39.712Z,6.41
2022-12-26T03:14:12.763Z,6.41
2022-12-26T03:14:43.570Z,6.41
2022-12-26T03:15:17.556Z,6.41
2022-12-26T03:15:47.850Z,6.52
2022-12-26T03:16:20.634Z,6.52
2022-12-26T03:16:51.786Z,6.57
2022-12-26T03:17:24.681Z,6.57
2022-12-26T03:17:55.777Z,6.40
2022-12-26T03:18:58.595Z,6.40
2022-12-26T03:19:00.805Z,6.40
2022-12-26T03:19:32.490Z,6.40
2022-12-26T03:20:04.067Z,6.40
2022-12-26T03:20:36.693Z,6.40
2022-12-26T03:21:07.702Z,6.51
2022-12-26T03:21:40.720Z,6.51
2022-12-26T03:22:11.719Z,6.51
2022-12-26T03:22:44.693Z,6.51
2022-12-26T03:23:15.743Z,6.51
2022-12-26T03:23:48.747Z,6.51
2022-12-26T03:24:19.758Z,6.63
2022-12-26T03:24:52.523Z,6.63
2022-12-26T03:25:24.040Z,6.63
2022-12-26T03:25:56.477Z,6.63
2022-12-26T03:26:27.756Z,6.47
2022-12-26T03:27:00.771Z,6.47
2022-12-26T03:27:31.615Z,6.47
2022-12-26T03:28:04.950Z,6.47
2022-12-26T03:28:35.726Z,6.57
2022-12-26T03:29:08.343Z,6.57
2022-12-26T03:29:39.647Z,6.57
2022-12-26T03:30:13.415Z,6.57
2022-12-26T03:30:44.026Z,6.57
2022-12-26T03:31:16.401Z,6.57
2022-12-26T03:31:47.616Z,6.57
2022-12-26T03:32:20.675Z,6.57
2022-12-26T03:32:51.548Z,6.57
2022-12-26T03:33:24.373Z,6.57
2022-12-26T03:33:55.659Z,6.68
2022-12-26T03:34:28.571Z,6.68
2022-12-26T03:34:59.668Z,6.52
2022-12-26T03:35:32.963Z,6.52
2022-12-26T03:36:03.676Z,6.52
2022-12-26T03:36:36.853Z,6.52
2022-12-26T03:37:07.776Z,6.56
2022-12-26T03:37:49.026Z,6.56
2022-12-26T03:38:11.859Z,6.56
2022-12-26T03:38:44.507Z,6.56
2022-12-26T03:39:15.709Z,6.56
2022-12-26T03:39:48.615Z,6.56
2022-12-26T03:40:19.997Z,6.67
2022-12-26T03:40:52.406Z,6.67
2022-12-26T03:41:23.635Z,6.67
2022-12-26T03:41:56.530Z,6.67
2022-12-26T03:42:27.687Z,6.51
2022-12-26T03:43:00.694Z,6.51
2022-12-26T03:43:31.773Z,6.62
2022-12-26T03:44:04.427Z,6.62
2022-12-26T03:44:35.704Z,6.62
2022-12-26T03:45:09.930Z,6.62
2022-12-26T03:45:39.872Z,6.79
2022-12-26T03:46:12.670Z,6.79
2022-12-26T03:46:43.666Z,6.79
2022-12-26T03:47:16.445Z,6.79
2022-12-26T03:47:47.718Z,6.62
2022-12-26T03:48:21.251Z,6.62
2022-12-26T03:48:51.805Z,6.73
2022-12-26T03:49:25.262Z,6.73
2022-12-26T03:49:55.685Z,6.90
2022-12-26T03:50:29.150Z,6.90
2022-12-26T03:50:59.546Z,6.73
2022-12-26T03:51:32.415Z,6.73
2022-12-26T03:52:03.770Z,6.73
2022-12-26T03:52:36.663Z,6.73
2022-12-26T03:53:07.659Z,6.73
2022-12-26T03:53:40.420Z,6.73
2022-12-26T03:54:11.692Z,6.73
2022-12-26T03:54:44.445Z,6.73
2022-12-26T03:55:15.919Z,6.73
2022-12-26T03:55:48.502Z,6.73
2022-12-26T03:56:19.805Z,6.73
2022-12-26T03:56:52.396Z,6.73
2022-12-26T03:57:23.824Z,6.73
2022-12-26T03:57:56.606Z,6.73
2022-12-26T03:58:27.596Z,6.84
2022-12-26T03:59:00.350Z,6.84
2022-12-26T03:59:31.724Z,6.84
2022-12-26T04:00:06.040Z,6.84
2022-12-26T04:00:35.598Z,6.84
2022-12-26T04:01:08.573Z,6.84
2022-12-26T04:01:39.946Z,6.84
2022-12-26T04:02:12.626Z,6.84
2022-12-26T04:02:43.672Z,6.84
2022-12-26T04:03:16.555Z,6.84
2022-12-26T04:03:47.917Z,6.66
2022-12-26T04:04:20.534Z,6.66
2022-12-26T04:04:51.635Z,6.84
2022-12-26T04:05:24.869Z,6.84
2022-12-26T04:05:55.718Z,6.66
2022-12-26T04:06:28.536Z,6.66
2022-12-26T04:06:59.895Z,6.66
2022-12-26T04:07:32.807Z,6.66
2022-12-26T04:08:03.632Z,6.84
2022-12-26T04:08:36.814Z,6.84
2022-12-26T04:09:07.816Z,6.66
2022-12-26T04:09:40.612Z,6.66
2022-12-26T04:10:12.020Z,6.66
2022-12-26T04:10:44.580Z,6.66
2022-12-26T04:11:15.673Z,6.66
2022-12-26T04:11:48.469Z,6.66
2022-12-26T04:12:19.768Z,6.66
2022-12-26T04:12:52.768Z,6.66
2022-12-26T04:13:23.400Z,6.71
2022-12-26T04:13:56.656Z,6.71
2022-12-26T04:14:27.772Z,6.71
2022-12-26T04:15:02.126Z,6.71
2022-12-26T04:15:31.897Z,6.71
2022-12-26T04:16:04.515Z,6.71
2022-12-26T04:16:35.765Z,6.71
2022-12-26T04:17:08.694Z,6.71
2022-12-26T04:17:39.709Z,6.71
2022-12-26T04:18:12.667Z,6.71
2022-12-26T04:18:43.586Z,6.82
2022-12-26T04:19:16.702Z,6.82
2022-12-26T04:19:47.748Z,6.71
2022-12-26T04:20:21.202Z,6.71
2022-12-26T04:20:51.725Z,6.82
2022-12-26T04:21:24.611Z,6.82
2022-12-26T04:21:55.832Z,6.82
2022-12-26T04:22:28.693Z,6.82
2022-12-26T04:22:59.870Z,6.71
2022-12-26T04:23:32.240Z,6.71
2022-12-26T04:24:03.772Z,6.82
2022-12-26T04:24:36.846Z,6.82
2022-12-26T04:25:07.865Z,6.71
2022-12-26T04:25:50.666Z,6.71
2022-12-26T04:26:11.652Z,6.82
2022-12-26T04:26:44.480Z,6.82
2022-12-26T04:27:15.749Z,6.82
2022-12-26T04:27:48.615Z,6.82
2022-12-26T04:28:19.749Z,6.82
2022-12-26T04:28:52.613Z,6.82
2022-12-26T04:29:23.708Z,6.82
2022-12-26T04:29:56.671Z,6.82
2022-12-26T04:30:29.016Z,6.82
2022-12-26T04:31:00.792Z,6.82
2022-12-26T04:31:31.896Z,6.82
2022-12-26T04:32:04.641Z,6.82
2022-12-26T04:32:35.714Z,6.82
2022-12-26T04:33:08.658Z,6.82
2022-12-26T04:33:39.884Z,6.82
2022-12-26T04:34:12.811Z,6.82
2022-12-26T04:34:43.759Z,6.82
2022-12-26T04:35:17.005Z,6.82
2022-12-26T04:35:47.835Z,6.82
2022-12-26T04:36:20.478Z,6.82
2022-12-26T04:36:51.760Z,6.82
2022-12-26T04:37:24.611Z,6.82
2022-12-26T04:37:55.681Z,6.82
2022-12-26T04:38:28.472Z,6.82
2022-12-26T04:38:59.824Z,6.82
2022-12-26T04:39:32.414Z,6.82
2022-12-26T04:40:04.049Z,6.82
2022-12-26T04:40:36.739Z,6.82
2022-12-26T04:41:07.619Z,6.82
2022-12-26T04:41:40.571Z,6.82
2022-12-26T04:42:11.748Z,6.64
2022-12-26T04:42:44.852Z,6.64
2022-12-26T04:43:48.756Z,6.64
2022-12-26T04:43:51.579Z,6.64
2022-12-26T04:44:19.742Z,6.64
2022-12-26T04:44:52.634Z,6.64
2022-12-26T04:45:24.937Z,6.64
2022-12-26T04:45:56.963Z,6.64
2022-12-26T04:46:27.653Z,6.64
2022-12-26T04:47:00.551Z,6.64
2022-12-26T04:47:31.798Z,6.76
2022-12-26T04:48:04.642Z,6.76
2022-12-26T04:48:35.667Z,6.76
2022-12-26T04:49:08.562Z,6.76
2022-12-26T04:49:39.860Z,6.76
2022-12-26T04:50:12.759Z,6.76
2022-12-26T04:50:43.689Z,6.76
2022-12-26T04:51:16.561Z,6.76
2022-12-26T04:51:47.655Z,6.76
2022-12-26T04:52:20.544Z,6.76
2022-12-26T04:52:51.667Z,6.76
2022-12-26T04:53:24.489Z,6.76
2022-12-26T04:53:55.697Z,6.86
2022-12-26T04:54:28.541Z,6.86
2022-12-26T04:54:59.697Z,6.70
2022-12-26T04:55:32.868Z,6.70
2022-12-26T04:56:03.680Z,6.86
2022-12-26T04:56:36.746Z,6.86
2022-12-26T04:57:07.608Z,6.70
2022-12-26T04:57:40.697Z,6.70
2022-12-26T04:58:11.689Z,6.80
2022-12-26T04:58:44.748Z,6.80
2022-12-26T04:59:15.761Z,6.80
2022-12-26T04:59:48.547Z,6.80
2022-12-26T05:00:21.410Z,6.80
2022-12-26T05:00:52.635Z,6.80
2022-12-26T05:01:23.894Z,6.80
2022-12-26T05:01:56.736Z,6.80
2022-12-26T05:02:27.772Z,6.80
2022-12-26T05:03:00.692Z,6.80
2022-12-26T05:03:31.889Z,6.80
2022-12-26T05:04:04.512Z,6.80
2022-12-26T05:04:35.704Z,6.85
2022-12-26T05:05:08.818Z,6.85
2022-12-26T05:05:39.606Z,6.85
2022-12-26T05:06:12.321Z,6.85
2022-12-26T05:06:43.769Z,6.85
2022-12-26T05:07:16.739Z,6.85
2022-12-26T05:07:47.670Z,6.85
2022-12-26T05:08:20.554Z,6.85
2022-12-26T05:08:51.713Z,6.85
2022-12-26T05:09:24.749Z,6.85
2022-12-26T05:09:55.654Z,6.85
2022-12-26T05:10:28.836Z,6.85
2022-12-26T05:10:59.757Z,6.85
2022-12-26T05:11:32.553Z,6.85
2022-12-26T05:12:03.686Z,6.85
2022-12-26T05:12:36.845Z,6.85
2022-12-26T05:13:07.790Z,6.96
2022-12-26T05:13:40.689Z,6.96
2022-12-26T05:14:11.751Z,6.85
2022-12-26T05:14:45.644Z,6.85
2022-12-26T05:15:16.713Z,6.85
2022-12-26T05:15:48.876Z,6.85
2022-12-26T05:16:19.838Z,6.96
2022-12-26T05:16:52.547Z,6.96
2022-12-26T05:17:23.805Z,6.85
2022-12-26T05:17:56.576Z,6.85
2022-12-26T05:18:27.753Z,6.85
2022-12-26T05:19:00.586Z,6.85
2022-12-26T05:19:31.696Z,6.85
2022-12-26T05:20:04.700Z,6.85
2022-12-26T05:20:35.616Z,6.96
2022-12-26T05:21:08.633Z,6.96
2022-12-26T05:21:39.838Z,6.96
2022-12-26T05:22:12.798Z,6.96
2022-12-26T05:22:43.707Z,6.96
2022-12-26T05:23:16.474Z,6.96
2022-12-26T05:23:47.740Z,6.96
2022-12-26T05:24:20.693Z,6.96
2022-12-26T05:24:51.677Z,6.96
2022-12-26T05:25:24.892Z,6.96
2022-12-26T05:25:55.872Z,6.96
2022-12-26T05:26:28.686Z,6.96
2022-12-26T05:26:59.711Z,6.96
2022-12-26T05:27:32.805Z,6.96
2022-12-26T05:28:03.965Z,6.96
2022-12-26T05:28:36.721Z,6.96
2022-12-26T05:29:07.866Z,6.96
2022-12-26T05:29:40.389Z,6.96
2022-12-26T05:30:12.571Z,7.08
2022-12-26T05:30:44.962Z,7.08
2022-12-26T05:31:15.898Z,7.08
2022-12-26T05:31:48.562Z,7.08
2022-12-26T05:32:19.708Z,7.08
2022-12-26T05:32:52.675Z,7.08
2022-12-26T05:33:23.825Z,7.08
2022-12-26T05:33:56.680Z,7.08
2022-12-26T05:34:27.572Z,7.08
2022-12-26T05:35:01.523Z,7.08
2022-12-26T05:35:31.811Z,7.08
2022-12-26T05:36:04.715Z,7.08
2022-12-26T05:36:35.770Z,7.18
2022-12-26T05:37:08.463Z,7.18
2022-12-26T05:37:39.738Z,7.00
2022-12-26T05:38:12.494Z,7.00
2022-12-26T05:38:43.746Z,7.18
2022-12-26T05:39:16.355Z,7.18
2022-12-26T05:39:47.843Z,7.00
2022-12-26T05:40:21.075Z,7.00
2022-12-26T05:40:51.631Z,7.00
2022-12-26T05:41:24.501Z,7.00
2022-12-26T05:41:55.768Z,7.11
2022-12-26T05:42:28.752Z,7.11
2022-12-26T05:42:59.674Z,7.11
2022-12-26T05:43:32.738Z,7.11
2022-12-26T05:44:03.797Z,7.11
2022-12-26T05:44:37.441Z,7.11
2022-12-26T05:45:08.863Z,7.11
2022-12-26T05:45:40.830Z,7.11
2022-12-26T05:46:11.771Z,7.11
2022-12-26T05:46:45.419Z,7.11
2022-12-26T05:47:15.797Z,7.11
2022-12-26T05:47:51.820Z,7.11
2022-12-26T05:48:19.763Z,7.11
2022-12-26T05:48:52.353Z,7.11
2022-12-26T05:49:23.679Z,7.16
2022-12-26T05:49:56.629Z,7.16
2022-12-26T05:50:28.106Z,7.16
2022-12-26T05:51:00.622Z,7.16
2022-12-26T05:51:31.835Z,6.98
2022-12-26T05:52:04.413Z,6.98
2022-12-26T05:52:35.674Z,7.16
2022-12-26T05:53:08.607Z,7.16
2022-12-26T05:53:39.855Z,7.09
2022-12-26T05:54:12.333Z,7.09
2022-12-26T05:54:43.697Z,7.09
2022-12-26T05:55:16.897Z,7.09
2022-12-26T05:55:47.643Z,7.09
2022-12-26T05:56:21.670Z,7.09
2022-12-26T05:56:51.747Z,7.09
2022-12-26T05:57:24.751Z,7.09
2022-12-26T05:57:55.721Z,7.20
2022-12-26T05:58:29.435Z,7.20
2022-12-26T05:58:59.594Z,7.20
2022-12-26T05:59:32.592Z,7.20
2022-12-26T06:00:05.355Z,7.20
2022-12-26T06:00:36.809Z,7.20
2022-12-26T06:01:07.734Z,7.13
2022-12-26T06:01:40.807Z,7.13
2022-12-26T06:02:11.986Z,7.13
2022-12-26T06:02:44.688Z,7.13
2022-12-26T06:03:16.057Z,7.13
2022-12-26T06:03:48.755Z,7.13
2022-12-26T06:04:19.904Z,7.24
2022-12-26T06:04:52.494Z,7.24
2022-12-26T06:05:24.084Z,7.24
2022-12-26T06:05:56.740Z,7.24
2022-12-26T06:06:27.630Z,7.24
2022-12-26T06:07:00.548Z,7.24
2022-12-26T06:07:31.864Z,7.29
2022-12-26T06:08:04.529Z,7.29
2022-12-26T06:08:35.725Z,7.29
2022-12-26T06:09:08.616Z,7.29
2022-12-26T06:09:39.810Z,7.09
2022-12-26T06:10:13.859Z,7.09
2022-12-26T06:10:43.751Z,7.09
2022-12-26T06:11:16.725Z,7.09
2022-12-26T06:11:49.095Z,7.09
2022-12-26T06:12:20.764Z,7.09
2022-12-26T06:12:51.779Z,7.20
2022-12-26T06:13:24.435Z,7.20
2022-12-26T06:13:55.744Z,7.20
2022-12-26T06:14:28.646Z,7.20
2022-12-26T06:14:59.741Z,7.20
2022-12-26T06:15:33.985Z,7.20
2022-12-26T06:16:03.810Z,7.20
2022-12-26T06:16:36.851Z,7.20
2022-12-26T06:17:07.654Z,7.20
2022-12-26T06:17:40.676Z,7.20
2022-12-26T06:18:11.679Z,7.20
2022-12-26T06:18:44.703Z,7.20
2022-12-26T06:19:15.632Z,7.32
2022-12-26T06:19:48.411Z,7.32
2022-12-26T06:20:20.243Z,7.32
2022-12-26T06:20:52.569Z,7.32
2022-12-26T06:21:23.793Z,7.32
2022-12-26T06:21:56.701Z,7.32
2022-12-26T06:22:27.841Z,7.32
2022-12-26T06:23:00.887Z,7.32
2022-12-26T06:23:31.701Z,7.32
2022-12-26T06:24:04.630Z,7.32
2022-12-26T06:24:35.592Z,7.32
2022-12-26T06:25:08.785Z,7.32
2022-12-26T06:25:39.749Z,7.32
2022-12-26T06:26:12.821Z,7.32
2022-12-26T06:26:43.744Z,7.42
2022-12-26T06:27:16.818Z,7.42
2022-12-26T06:27:47.887Z,7.32
2022-12-26T06:28:20.418Z,7.32
2022-12-26T06:28:51.749Z,7.32
2022-12-26T06:29:24.612Z,7.32
2022-12-26T06:29:55.803Z,7.32
2022-12-26T06:30:29.921Z,7.32
2022-12-26T06:30:59.785Z,7.32
2022-12-26T06:31:32.713Z,7.32
2022-12-26T06:32:03.726Z,7.32
2022-12-26T06:32:36.876Z,7.32
2022-12-26T06:33:07.720Z,7.32
2022-12-26T06:33:40.557Z,7.32
2022-12-26T06:34:11.673Z,7.32
2022-12-26T06:34:44.737Z,7.32
2022-12-26T06:35:16.150Z,7.32
2022-12-26T06:35:48.422Z,7.32
2022-12-26T06:36:19.774Z,7.32
2022-12-26T06:36:52.609Z,7.32
2022-12-26T06:37:23.916Z,7.32
2022-12-26T06:37:56.459Z,7.32
2022-12-26T06:38:27.807Z,7.32
2022-12-26T06:39:00.680Z,7.32
2022-12-26T06:39:31.762Z,7.32
2022-12-26T06:40:04.631Z,7.32
2022-12-26T06:40:35.723Z,7.13
2022-12-26T06:41:08.539Z,7.13
2022-12-26T06:41:39.731Z,7.13
2022-12-26T06:42:12.704Z,7.13
2022-12-26T06:42:43.833Z,7.13
2022-12-26T06:43:16.483Z,7.13
2022-12-26T06:43:47.739Z,7.13
2022-12-26T06:44:20.468Z,7.13
2022-12-26T06:44:51.842Z,7.32
2022-12-26T06:45:25.680Z,7.32
2022-12-26T06:45:55.803Z,7.24
2022-12-26T06:46:28.481Z,7.24
2022-12-26T06:46:59.711Z,7.13
2022-12-26T06:47:32.461Z,7.13
2022-12-26T06:48:03.694Z,7.24
2022-12-26T06:48:36.710Z,7.24
2022-12-26T06:49:07.621Z,7.13
2022-12-26T06:49:40.471Z,7.13
2022-12-26T06:50:12.050Z,7.32
2022-12-26T06:50:45.503Z,7.32
2022-12-26T06:51:15.707Z,7.24
2022-12-26T06:51:48.568Z,7.24
2022-12-26T06:52:19.842Z,7.13
2022-12-26T06:52:52.484Z,7.13
2022-12-26T06:53:23.740Z,7.24
2022-12-26T06:53:56.476Z,7.24
2022-12-26T06:54:27.701Z,7.32
2022-12-26T06:55:00.873Z,7.32
2022-12-26T06:55:31.823Z,7.32
2022-12-26T06:56:04.671Z,7.32
2022-12-26T06:56:35.694Z,7.32
2022-12-26T06:57:08.565Z,7.32
2022-12-26T06:57:39.825Z,7.32
2022-12-26T06:58:12.472Z,7.32
2022-12-26T06:58:43.697Z,7.13
2022-12-26T06:59:16.528Z,7.13
2022-12-26T06:59:47.763Z,7.13
2022-12-26T07:00:21.771Z,7.13
2022-12-26T07:00:51.893Z,7.32
2022-12-26T07:01:24.730Z,7.32
2022-12-26T07:01:55.740Z,7.32
2022-12-26T07:02:28.694Z,7.32
2022-12-26T07:02:59.765Z,7.32
2022-12-26T07:03:32.565Z,7.32
2022-12-26T07:04:03.689Z,7.32
2022-12-26T07:04:36.690Z,7.32
2022-12-26T07:05:07.956Z,7.32
2022-12-26T07:05:40.638Z,7.32
2022-12-26T07:06:11.596Z,7.32
2022-12-26T07:06:44.597Z,7.32
2022-12-26T07:07:15.691Z,7.20